Time;durP1;ratioP1;P1;durP2;ratioP2;P2;SDS_P1;SDS_P2;PMS_P1;PMS_P2;Temp;Humidity;BMP_temperature;BMP_pressure;BME280_temperature;BME280_humidity;BME280_pressure;Samples;Min_cycle;Max_cycle;Signal;HPM_P1;HPM_P2
2023/01/28 00:02:23;;;;;;;8.73;7.83;;;;;;;;;;5071657;28;20446;-75
2023/01/28 00:04:51;;;;;;;10.83;7.90;;;;;;;;;;5071509;28;20442;-74
2023/01/28 00:07:19;;;;;;;9.30;7.97;;;;;;;;;;5071626;28;20491;-75
2023/01/28 00:09:47;;;;;;;7.87;7.10;;;;;;;;;;5071418;28;20850;-74
2023/01/28 00:12:14;;;;;;;8.40;7.50;;;;;;;;;;5071420;28;20481;-74
2023/01/28 00:14:41;;;;;;;7.87;7.17;;;;;;;;;;5071163;28;20817;-75
2023/01/28 00:17:08;;;;;;;7.67;6.87;;;;;;;;;;5070934;28;20816;-74
2023/01/28 00:19:35;;;;;;;8.30;7.23;;;;;;;;;;5071190;28;20468;-74
2023/01/28 00:22:03;;;;;;;8.20;7.40;;;;;;;;;;5070826;28;20468;-75
2023/01/28 00:24:30;;;;;;;8.33;7.20;;;;;;;;;;5070542;28;20921;-75
2023/01/28 00:26:58;;;;;;;8.33;7.47;;;;;;;;;;5071160;28;20495;-75
2023/01/28 00:29:25;;;;;;;8.50;7.70;;;;;;;;;;5070934;28;20466;-75
2023/01/28 00:31:53;;;;;;;8.67;7.80;;;;;;;;;;5070939;28;20466;-75
2023/01/28 00:34:21;;;;;;;9.57;7.07;;;;;;;;;;5070661;28;20487;-76
2023/01/28 00:36:56;;;;;;;8.40;7.50;;;;;;;;;;5070859;28;20860;-74
2023/01/28 00:39:23;;;;;;;8.67;7.20;;;;;;;;;;5070745;28;20508;-76
2023/01/28 00:41:50;;;;;;;8.10;6.70;;;;;;;;;;5069697;28;20445;-74
2023/01/28 00:44:19;;;;;;;7.70;6.90;;;;;;;;;;5076084;28;20437;-74
2023/01/28 00:46:46;;;;;;;9.23;7.67;;;;;;;;;;5090784;28;20451;-74
2023/01/28 00:49:13;;;;;;;7.33;6.73;;;;;;;;;;5092503;28;20474;-74
2023/01/28 00:51:40;;;;;;;7.37;6.70;;;;;;;;;;5091868;28;20437;-76
2023/01/28 00:54:07;;;;;;;7.73;6.93;;;;;;;;;;5091817;28;20531;-73
2023/01/28 00:56:35;;;;;;;8.27;7.37;;;;;;;;;;5086981;28;20456;-74
2023/01/28 00:59:02;;;;;;;9.20;7.10;;;;;;;;;;5087592;28;20486;-75
2023/01/28 01:01:31;;;;;;;8.70;6.90;;;;;;;;;;5093938;28;20470;-74
2023/01/28 01:04:01;;;;;;;7.57;6.27;;;;;;;;;;5093940;28;20445;-74
2023/01/28 01:06:29;;;;;;;9.60;7.43;;;;;;;;;;5090650;28;20790;-74
2023/01/28 01:08:56;;;;;;;9.40;7.30;;;;;;;;;;5088435;28;20453;-75
2023/01/28 01:11:23;;;;;;;8.30;7.40;;;;;;;;;;5091086;28;20431;-74
2023/01/28 01:13:51;;;;;;;8.23;7.23;;;;;;;;;;5092498;28;20870;-74
2023/01/28 01:16:18;;;;;;;8.13;7.33;;;;;;;;;;5081910;28;20465;-74
2023/01/28 01:18:46;;;;;;;7.50;6.80;;;;;;;;;;5073468;28;20441;-74
2023/01/28 01:21:15;;;;;;;8.47;7.33;;;;;;;;;;5070232;28;20558;-74
2023/01/28 01:23:42;;;;;;;9.40;8.43;;;;;;;;;;5069613;28;20440;-74
2023/01/28 01:26:09;;;;;;;8.57;7.60;;;;;;;;;;5069995;28;20460;-73
2023/01/28 01:28:36;;;;;;;7.70;6.90;;;;;;;;;;5068233;28;20434;-73
2023/01/28 01:31:04;;;;;;;7.73;7.10;;;;;;;;;;5069770;28;20450;-75
2023/01/28 01:33:32;;;;;;;7.23;6.50;;;;;;;;;;5074392;28;20485;-74
2023/01/28 01:36:00;;;;;;;8.07;7.27;;;;;;;;;;5074747;28;20454;-75
2023/01/28 01:38:28;;;;;;;8.60;7.30;;;;;;;;;;5075293;28;20497;-74
2023/01/28 01:40:57;;;;;;;8.07;7.27;;;;;;;;;;5075025;28;20480;-74
2023/01/28 01:43:24;;;;;;;7.97;7.17;;;;;;;;;;5074070;28;20434;-75
2023/01/28 01:45:53;;;;;;;7.13;6.40;;;;;;;;;;5071882;28;20454;-74
2023/01/28 01:48:22;;;;;;;8.60;6.90;;;;;;;;;;5071878;28;20435;-73
2023/01/28 01:50:52;;;;;;;7.20;6.50;;;;;;;;;;5070690;28;20515;-74
2023/01/28 01:53:21;;;;;;;7.83;6.93;;;;;;;;;;5064208;28;20486;-73
2023/01/28 01:55:50;;;;;;;7.30;6.67;;;;;;;;;;5067298;28;20480;-75
2023/01/28 01:58:19;;;;;;;6.83;6.13;;;;;;;;;;5051187;28;20442;-74
2023/01/28 02:00:46;;;;;;;7.03;6.37;;;;;;;;;;5051510;28;20482;-74
2023/01/28 02:03:14;;;;;;;6.97;6.27;;;;;;;;;;5072007;28;20441;-73
2023/01/28 02:05:41;;;;;;;11.40;7.60;;;;;;;;;;5072329;28;20431;-74
2023/01/28 02:08:24;;;;;;;7.77;6.97;;;;;;;;;;5071730;28;20438;-75
2023/01/28 02:10:54;;;;;;;7.73;6.93;;;;;;;;;;5072030;28;20468;-74
2023/01/28 02:13:23;;;;;;;7.20;6.60;;;;;;;;;;5071834;28;20473;-75
2023/01/28 02:15:50;;;;;;;6.83;6.23;;;;;;;;;;5062936;28;20448;-74
2023/01/28 02:18:17;;;;;;;8.03;6.93;;;;;;;;;;5050963;28;20976;-74
2023/01/28 02:20:51;;;;;;;7.17;6.43;;;;;;;;;;5049808;28;20458;-74
2023/01/28 02:23:32;;;;;;;7.60;6.90;;;;;;;;;;5054721;28;20442;-74
2023/01/28 02:26:17;;;;;;;6.97;6.30;;;;;;;;;;5053750;28;20529;-75
2023/01/28 02:28:48;;;;;;;7.20;5.53;;;;;;;;;;5052769;28;20470;-74
2023/01/28 02:31:19;;;;;;;7.00;6.30;;;;;;;;;;5053003;28;20418;-74
2023/01/28 02:33:51;;;;;;;7.40;6.70;;;;;;;;;;5053023;28;20863;-74
2023/01/28 02:36:22;;;;;;;6.20;5.60;;;;;;;;;;5052921;28;20435;-74
2023/01/28 02:38:50;;;;;;;7.10;6.50;;;;;;;;;;5052740;28;20457;-74
2023/01/28 02:41:21;;;;;;;6.70;6.10;;;;;;;;;;5052535;28;20564;-75
2023/01/28 02:43:50;;;;;;;7.83;5.50;;;;;;;;;;5052501;28;20516;-74
2023/01/28 02:49:07;;;;;;;7.70;5.70;;;;;;;;;;5052483;28;20393;-74
2023/01/28 02:51:38;;;;;;;6.50;5.77;;;;;;;;;;5052100;28;21002;-75
2023/01/28 02:54:11;;;;;;;7.17;6.47;;;;;;;;;;5052155;28;20465;-74
2023/01/28 02:56:42;;;;;;;7.17;6.57;;;;;;;;;;5052406;28;20433;-74
2023/01/28 02:59:32;;;;;;;7.63;6.83;;;;;;;;;;5051828;28;20817;-74
2023/01/28 03:02:01;;;;;;;7.13;6.53;;;;;;;;;;5052081;28;20511;-74
2023/01/28 03:04:30;;;;;;;6.43;5.80;;;;;;;;;;5052173;28;20449;-74
2023/01/28 03:06:59;;;;;;;7.70;7.00;;;;;;;;;;5051878;28;20853;-73
2023/01/28 03:09:27;;;;;;;6.97;6.37;;;;;;;;;;5051864;28;21047;-75
2023/01/28 03:36:52;;;;;;;7.50;6.80;;;;;;;;;;5051844;28;20414;-73
2023/01/28 03:39:20;;;;;;;8.17;7.40;;;;;;;;;;5051828;28;20479;-75
2023/01/28 03:41:56;;;;;;;8.10;7.40;;;;;;;;;;5052018;28;20452;-74
2023/01/28 03:47:10;;;;;;;7.67;6.97;;;;;;;;;;5051275;28;20417;-74
2023/01/28 03:49:38;;;;;;;8.47;7.67;;;;;;;;;;5051614;28;20552;-73
2023/01/28 03:52:05;;;;;;;9.57;8.57;;;;;;;;;;5051172;28;20450;-73
2023/01/28 03:54:32;;;;;;;10.67;9.30;;;;;;;;;;5050935;28;21063;-74
2023/01/28 03:56:59;;;;;;;11.77;9.87;;;;;;;;;;5051486;28;20446;-74
2023/01/28 03:59:26;;;;;;;10.37;9.00;;;;;;;;;;5051723;28;20458;-73
2023/01/28 04:01:54;;;;;;;10.50;9.40;;;;;;;;;;5054063;28;20442;-74
2023/01/28 04:04:23;;;;;;;11.07;9.03;;;;;;;;;;5052107;28;20449;-74
2023/01/28 04:06:50;;;;;;;10.43;9.33;;;;;;;;;;5050962;28;20886;-74
2023/01/28 04:09:17;;;;;;;11.10;10.00;;;;;;;;;;5050875;28;20475;-74
2023/01/28 04:11:45;;;;;;;11.90;10.73;;;;;;;;;;5051301;28;20458;-74
2023/01/28 04:14:12;;;;;;;10.97;9.80;;;;;;;;;;5051723;28;20484;-74
2023/01/28 04:16:39;;;;;;;11.00;10.00;;;;;;;;;;5052983;28;20450;-74
2023/01/28 04:19:06;;;;;;;10.20;9.10;;;;;;;;;;5051375;28;20439;-75
2023/01/28 04:21:35;;;;;;;10.07;9.07;;;;;;;;;;5063125;28;20449;-74
2023/01/28 04:24:02;;;;;;;11.43;10.23;;;;;;;;;;5071463;28;20445;-74
2023/01/28 04:26:29;;;;;;;11.20;10.10;;;;;;;;;;5070493;28;20468;-73
2023/01/28 04:28:56;;;;;;;10.70;9.60;;;;;;;;;;5070621;28;20437;-73
2023/01/28 04:31:23;;;;;;;14.13;11.70;;;;;;;;;;5070738;28;20450;-74
2023/01/28 04:33:50;;;;;;;11.77;10.60;;;;;;;;;;5070446;28;20913;-73
2023/01/28 04:36:17;;;;;;;10.97;9.87;;;;;;;;;;5071235;28;20494;-74
2023/01/28 04:38:46;;;;;;;14.70;10.50;;;;;;;;;;5073687;28;20449;-74
2023/01/28 04:41:13;;;;;;;12.40;11.10;;;;;;;;;;5072544;28;20474;-73
2023/01/28 04:43:40;;;;;;;12.77;11.07;;;;;;;;;;5071229;28;20450;-74
2023/01/28 04:46:07;;;;;;;12.20;10.87;;;;;;;;;;5070457;28;20476;-74
2023/01/28 04:48:35;;;;;;;12.10;10.47;;;;;;;;;;5070440;28;20441;-74
2023/01/28 04:51:02;;;;;;;12.00;9.73;;;;;;;;;;5070147;28;20469;-74
2023/01/28 04:53:30;;;;;;;12.27;10.57;;;;;;;;;;5070146;28;20477;-74
2023/01/28 04:55:58;;;;;;;12.60;11.40;;;;;;;;;;5070300;28;20564;-74
2023/01/28 04:58:25;;;;;;;11.73;10.20;;;;;;;;;;5070119;28;20563;-73
2023/01/28 05:00:54;;;;;;;19.30;11.13;;;;;;;;;;5070488;28;20472;-74
2023/01/28 05:03:21;;;;;;;13.27;11.30;;;;;;;;;;5069816;28;20474;-74
2023/01/28 05:05:48;;;;;;;13.87;11.53;;;;;;;;;;5070284;28;20453;-75
2023/01/28 05:08:15;;;;;;;12.30;11.00;;;;;;;;;;5068544;28;20449;-74
2023/01/28 05:10:42;;;;;;;13.57;11.77;;;;;;;;;;5070055;28;20458;-75
2023/01/28 05:13:11;;;;;;;12.73;11.40;;;;;;;;;;5069621;28;20519;-74
2023/01/28 05:15:38;;;;;;;12.73;10.90;;;;;;;;;;5062391;28;20480;-74
2023/01/28 05:18:05;;;;;;;11.77;10.53;;;;;;;;;;5049971;28;20449;-74
2023/01/28 05:20:32;;;;;;;12.00;10.70;;;;;;;;;;5049820;28;20478;-74
2023/01/28 05:22:59;;;;;;;13.03;11.07;;;;;;;;;;5049393;28;20469;-74
2023/01/28 05:25:27;;;;;;;12.50;10.27;;;;;;;;;;5050314;28;20439;-74
2023/01/28 05:27:54;;;;;;;12.40;10.37;;;;;;;;;;5050104;28;20485;-74
2023/01/28 05:30:22;;;;;;;11.67;10.07;;;;;;;;;;5049049;28;20933;-74
2023/01/28 05:32:50;;;;;;;13.63;11.03;;;;;;;;;;5049470;28;20449;-74
2023/01/28 05:35:17;;;;;;;14.80;11.67;;;;;;;;;;5049970;28;20513;-74
2023/01/28 05:37:44;;;;;;;12.10;10.80;;;;;;;;;;5049740;28;20929;-74
2023/01/28 05:40:11;;;;;;;13.20;10.90;;;;;;;;;;5049424;28;20460;-74
2023/01/28 05:42:38;;;;;;;12.70;11.27;;;;;;;;;;5049140;28;20450;-74
2023/01/28 05:45:06;;;;;;;11.67;9.83;;;;;;;;;;5049415;28;20815;-74
2023/01/28 05:47:35;;;;;;;11.57;9.93;;;;;;;;;;5049909;28;20445;-73
2023/01/28 05:50:02;;;;;;;11.67;10.00;;;;;;;;;;5049579;28;20475;-74
2023/01/28 05:52:29;;;;;;;12.27;10.97;;;;;;;;;;5049479;28;20458;-74
2023/01/28 05:54:56;;;;;;;12.40;11.10;;;;;;;;;;5049245;28;20486;-74
2023/01/28 05:57:23;;;;;;;13.10;11.70;;;;;;;;;;5053691;28;20474;-74
2023/01/28 05:59:50;;;;;;;15.93;11.10;;;;;;;;;;5053763;28;20460;-74
2023/01/28 06:02:17;;;;;;;11.97;10.73;;;;;;;;;;5053767;28;20854;-74
2023/01/28 06:04:45;;;;;;;15.93;10.47;;;;;;;;;;5052981;28;20459;-74
2023/01/28 06:07:14;;;;;;;11.77;10.50;;;;;;;;;;5053440;28;20447;-74
2023/01/28 06:09:41;;;;;;;11.90;10.70;;;;;;;;;;5053172;28;20475;-74
2023/01/28 06:12:08;;;;;;;12.10;10.50;;;;;;;;;;5053404;28;20444;-74
2023/01/28 06:14:35;;;;;;;11.80;10.40;;;;;;;;;;5052962;28;20486;-74
2023/01/28 06:17:02;;;;;;;12.37;10.60;;;;;;;;;;5053076;28;20454;-74
2023/01/28 06:19:29;;;;;;;11.97;10.60;;;;;;;;;;5053289;28;20503;-75
2023/01/28 06:21:58;;;;;;;11.67;10.27;;;;;;;;;;5056468;28;20466;-74
2023/01/28 06:24:25;;;;;;;11.40;10.07;;;;;;;;;;5056675;28;20445;-73
2023/01/28 06:26:52;;;;;;;11.90;10.33;;;;;;;;;;5054457;28;20450;-73
2023/01/28 06:29:19;;;;;;;10.23;9.13;;;;;;;;;;5053001;28;20860;-74
2023/01/28 06:31:46;;;;;;;10.77;9.60;;;;;;;;;;5053021;28;20443;-74
2023/01/28 06:34:14;;;;;;;13.07;9.60;;;;;;;;;;5052833;28;21047;-74
2023/01/28 06:36:41;;;;;;;13.77;10.07;;;;;;;;;;5052781;28;20447;-73
2023/01/28 06:39:09;;;;;;;11.37;10.17;;;;;;;;;;5053099;28;20822;-74
2023/01/28 06:41:37;;;;;;;13.00;10.63;;;;;;;;;;5053224;28;20533;-74
2023/01/28 06:44:04;;;;;;;11.13;9.93;;;;;;;;;;5052727;28;20447;-74
2023/01/28 06:46:31;;;;;;;12.80;10.10;;;;;;;;;;5053202;28;20451;-74
2023/01/28 06:48:58;;;;;;;12.33;11.07;;;;;;;;;;5053146;28;20450;-74
2023/01/28 06:51:25;;;;;;;10.93;9.57;;;;;;;;;;5053461;28;20495;-74
2023/01/28 06:53:52;;;;;;;11.43;9.80;;;;;;;;;;5053023;28;20440;-74
2023/01/28 06:56:20;;;;;;;15.17;10.70;;;;;;;;;;5052899;28;20468;-75
2023/01/28 06:58:47;;;;;;;11.63;10.30;;;;;;;;;;5052844;28;20450;-74
2023/01/28 07:01:14;;;;;;;13.50;11.10;;;;;;;;;;5052660;28;20502;-74
2023/01/28 07:03:41;;;;;;;11.60;10.43;;;;;;;;;;5052362;28;20456;-74
2023/01/28 07:06:08;;;;;;;13.30;10.83;;;;;;;;;;5053057;28;20438;-75
2023/01/28 07:08:36;;;;;;;11.70;10.50;;;;;;;;;;5052251;28;20450;-74
2023/01/28 07:11:03;;;;;;;12.33;10.80;;;;;;;;;;5052390;28;20907;-74
2023/01/28 07:13:32;;;;;;;12.67;11.03;;;;;;;;;;5053071;28;20796;-74
2023/01/28 07:15:59;;;;;;;14.07;11.07;;;;;;;;;;5052852;28;20478;-75
2023/01/28 07:18:26;;;;;;;12.27;10.43;;;;;;;;;;5052136;28;20905;-75
2023/01/28 07:20:53;;;;;;;12.40;10.57;;;;;;;;;;5052030;28;20831;-74
2023/01/28 07:23:20;;;;;;;12.70;11.40;;;;;;;;;;5052023;28;20442;-74
2023/01/28 07:25:48;;;;;;;12.40;11.10;;;;;;;;;;5051543;28;20454;-74
2023/01/28 07:28:20;;;;;;;10.80;9.70;;;;;;;;;;5052028;28;20503;-74
2023/01/28 07:30:48;;;;;;;11.90;10.70;;;;;;;;;;5052139;28;20476;-76
2023/01/28 07:33:15;;;;;;;13.43;11.53;;;;;;;;;;5052786;28;20455;-74
2023/01/28 07:35:42;;;;;;;13.27;11.43;;;;;;;;;;5052753;28;20846;-74
2023/01/28 07:38:09;;;;;;;12.07;10.87;;;;;;;;;;5052683;28;20453;-74
2023/01/28 07:40:36;;;;;;;14.60;11.70;;;;;;;;;;5052116;28;20462;-74
2023/01/28 07:43:03;;;;;;;12.70;11.23;;;;;;;;;;5052186;28;20441;-75
2023/01/28 07:45:30;;;;;;;12.07;10.80;;;;;;;;;;5051829;28;20447;-75
2023/01/28 07:48:00;;;;;;;16.70;11.93;;;;;;;;;;5052125;28;20450;-75
2023/01/28 07:50:27;;;;;;;12.37;11.00;;;;;;;;;;5053957;28;20455;-73
2023/01/28 07:52:55;;;;;;;15.23;12.07;;;;;;;;;;5053944;28;20545;-74
2023/01/28 07:55:22;;;;;;;13.93;11.80;;;;;;;;;;5052409;28;20518;-75
2023/01/28 07:57:53;;;;;;;15.33;12.43;;;;;;;;;;5053157;28;20454;-74
2023/01/28 08:00:20;;;;;;;13.27;11.70;;;;;;;;;;5051987;28;20469;-74
2023/01/28 08:02:47;;;;;;;13.60;12.20;;;;;;;;;;5051921;28;20438;-74
2023/01/28 08:05:17;;;;;;;14.57;12.43;;;;;;;;;;5052476;28;20526;-74
2023/01/28 08:07:45;;;;;;;13.33;11.20;;;;;;;;;;5056910;28;21596;-75
2023/01/28 08:10:12;;;;;;;14.73;12.73;;;;;;;;;;5053592;28;20984;-74
2023/01/28 08:12:39;;;;;;;13.03;11.67;;;;;;;;;;5051804;28;20442;-74
2023/01/28 08:15:07;;;;;;;17.70;15.03;;;;;;;;;;5055633;28;20486;-74
2023/01/28 08:17:34;;;;;;;15.27;13.67;;;;;;;;;;5071754;28;20440;-75
2023/01/28 08:20:01;;;;;;;18.90;12.50;;;;;;;;;;5071462;28;20476;-74
2023/01/28 08:22:29;;;;;;;15.97;13.70;;;;;;;;;;5071447;28;20454;-75
2023/01/28 08:24:56;;;;;;;16.23;12.70;;;;;;;;;;5071462;28;20529;-75
2023/01/28 08:27:23;;;;;;;15.63;11.90;;;;;;;;;;5071934;28;20449;-75
2023/01/28 08:29:50;;;;;;;14.00;11.90;;;;;;;;;;5071638;28;20476;-74
2023/01/28 08:32:17;;;;;;;13.60;12.30;;;;;;;;;;5071728;28;20996;-74
2023/01/28 08:34:44;;;;;;;13.23;11.30;;;;;;;;;;5071334;28;20493;-73
2023/01/28 08:37:11;;;;;;;13.70;12.30;;;;;;;;;;5071635;28;20448;-75
2023/01/28 08:39:40;;;;;;;14.53;12.63;;;;;;;;;;5071489;28;20466;-75
2023/01/28 08:42:07;;;;;;;16.67;12.47;;;;;;;;;;5071582;28;20488;-75
2023/01/28 08:44:34;;;;;;;13.03;11.33;;;;;;;;;;5070605;28;20444;-74
2023/01/28 08:47:01;;;;;;;14.53;12.40;;;;;;;;;;5070748;28;20455;-75
2023/01/28 08:49:28;;;;;;;15.00;12.87;;;;;;;;;;5070817;28;20566;-74
2023/01/28 08:51:55;;;;;;;14.43;12.70;;;;;;;;;;5070510;28;21002;-75
2023/01/28 08:54:22;;;;;;;14.50;11.70;;;;;;;;;;5070204;28;20451;-75
2023/01/28 08:56:51;;;;;;;14.03;12.47;;;;;;;;;;5070476;28;20439;-74
2023/01/28 08:59:18;;;;;;;17.53;12.23;;;;;;;;;;5070069;28;20461;-74
2023/01/28 09:01:45;;;;;;;36.60;28.93;;;;;;;;;;5070386;28;20446;-73
2023/01/28 09:04:12;;;;;;;18.40;14.23;;;;;;;;;;5070309;28;20454;-74
2023/01/28 09:06:39;;;;;;;16.57;14.13;;;;;;;;;;5070296;28;20806;-74
2023/01/28 09:09:06;;;;;;;14.03;11.77;;;;;;;;;;5070685;28;20453;-75
2023/01/28 09:11:33;;;;;;;16.10;12.40;;;;;;;;;;5070250;28;20455;-75
2023/01/28 09:14:01;;;;;;;15.47;12.97;;;;;;;;;;5070436;28;20450;-74
2023/01/28 09:16:29;;;;;;;20.17;18.00;;;;;;;;;;5070094;28;20480;-74
2023/01/28 09:18:56;;;;;;;16.10;13.00;;;;;;;;;;5070034;28;20442;-75
2023/01/28 09:21:23;;;;;;;17.13;13.43;;;;;;;;;;5069804;28;20507;-74
2023/01/28 09:23:50;;;;;;;15.00;13.40;;;;;;;;;;5070191;28;20451;-74
2023/01/28 09:26:17;;;;;;;13.77;12.33;;;;;;;;;;5070137;28;20443;-74
2023/01/28 09:28:44;;;;;;;16.50;13.13;;;;;;;;;;5069749;28;20441;-74
2023/01/28 09:31:12;;;;;;;18.50;13.47;;;;;;;;;;5069622;28;20463;-75
2023/01/28 09:33:40;;;;;;;16.30;13.40;;;;;;;;;;5069734;28;20449;-75
2023/01/28 09:36:09;;;;;;;16.53;14.83;;;;;;;;;;5069868;28;20482;-75
2023/01/28 09:38:36;;;;;;;19.10;13.50;;;;;;;;;;5070005;28;20474;-75
2023/01/28 09:41:04;;;;;;;18.40;13.77;;;;;;;;;;5069645;28;20467;-75
2023/01/28 09:43:45;;;;;;;15.17;12.70;;;;;;;;;;5070733;28;20474;-75
2023/01/28 09:46:17;;;;;;;15.43;13.00;;;;;;;;;;5072166;28;20442;-75
2023/01/28 09:48:46;;;;;;;16.97;13.93;;;;;;;;;;5069882;28;20505;-75
2023/01/28 09:51:19;;;;;;;16.73;13.40;;;;;;;;;;5069919;28;20484;-75
2023/01/28 09:53:48;;;;;;;17.20;14.33;;;;;;;;;;5070139;28;20447;-75
2023/01/28 09:56:19;;;;;;;15.67;13.83;;;;;;;;;;5069738;28;20484;-74
2023/01/28 09:58:46;;;;;;;16.00;14.30;;;;;;;;;;5072279;28;20450;-75
2023/01/28 10:01:29;;;;;;;15.27;12.70;;;;;;;;;;5071004;28;20463;-74
2023/01/28 10:04:00;;;;;;;14.20;12.70;;;;;;;;;;5071312;28;20433;-74
2023/01/28 10:06:35;;;;;;;14.93;13.33;;;;;;;;;;5072280;28;21019;-75
2023/01/28 10:09:19;;;;;;;17.53;13.87;;;;;;;;;;5071097;28;20518;-74
2023/01/28 10:11:55;;;;;;;14.73;12.50;;;;;;;;;;5069633;28;20437;-74
2023/01/28 10:14:27;;;;;;;14.70;12.80;;;;;;;;;;5070038;28;20442;-75
2023/01/28 10:16:59;;;;;;;17.50;14.10;;;;;;;;;;5069723;28;20668;-75
2023/01/28 10:19:27;;;;;;;14.63;12.70;;;;;;;;;;5069493;28;20992;-74
2023/01/28 10:21:57;;;;;;;18.87;13.90;;;;;;;;;;5069200;28;20457;-75
2023/01/28 10:24:26;;;;;;;15.27;13.03;;;;;;;;;;5069421;28;20450;-75
2023/01/28 10:26:53;;;;;;;16.03;13.43;;;;;;;;;;5069430;28;20887;-75
2023/01/28 10:29:22;;;;;;;16.60;13.90;;;;;;;;;;5068930;28;20463;-74
2023/01/28 10:31:52;;;;;;;20.43;14.13;;;;;;;;;;5069418;28;20451;-75
2023/01/28 10:34:21;;;;;;;18.67;14.20;;;;;;;;;;5069248;28;20533;-74
2023/01/28 10:36:49;;;;;;;16.97;14.47;;;;;;;;;;5069111;28;20478;-75
2023/01/28 10:39:17;;;;;;;18.33;12.83;;;;;;;;;;5069065;28;20467;-74
2023/01/28 10:41:44;;;;;;;16.40;13.30;;;;;;;;;;5069173;28;20891;-74
2023/01/28 10:44:14;;;;;;;16.90;13.17;;;;;;;;;;5072803;28;20496;-74
2023/01/28 10:46:44;;;;;;;17.97;13.90;;;;;;;;;;5072897;28;20443;-75
2023/01/28 10:49:14;;;;;;;20.17;15.30;;;;;;;;;;5072633;28;20432;-75
2023/01/28 10:51:43;;;;;;;18.10;13.63;;;;;;;;;;5072772;28;20481;-75
2023/01/28 10:54:21;;;;;;;17.47;14.47;;;;;;;;;;5072509;28;20455;-75
2023/01/28 10:56:49;;;;;;;17.47;14.00;;;;;;;;;;5072547;28;20486;-75
2023/01/28 10:59:21;;;;;;;19.10;13.37;;;;;;;;;;5072494;28;20830;-75
2023/01/28 11:01:49;;;;;;;17.93;14.23;;;;;;;;;;5072470;28;20525;-75
2023/01/28 11:04:18;;;;;;;16.93;15.00;;;;;;;;;;5072875;28;20447;-75
2023/01/28 11:06:54;;;;;;;18.67;14.30;;;;;;;;;;5072534;28;20482;-75
2023/01/28 11:09:21;;;;;;;17.47;13.20;;;;;;;;;;5072439;28;20462;-75
2023/01/28 11:11:48;;;;;;;16.70;13.60;;;;;;;;;;5072631;28;20438;-76
2023/01/28 11:14:20;;;;;;;19.43;14.93;;;;;;;;;;5072384;28;20445;-75
2023/01/28 11:16:47;;;;;;;16.37;13.77;;;;;;;;;;5072092;28;20468;-74
2023/01/28 11:19:14;;;;;;;17.80;13.50;;;;;;;;;;5072352;28;20975;-74
2023/01/28 11:21:48;;;;;;;15.03;12.60;;;;;;;;;;5072538;28;20467;-75
2023/01/28 11:24:19;;;;;;;19.83;15.97;;;;;;;;;;5072346;28;20454;-75
2023/01/28 11:26:49;;;;;;;17.53;12.30;;;;;;;;;;5072644;28;20658;-75
2023/01/28 11:29:23;;;;;;;17.33;13.60;;;;;;;;;;5072305;28;20516;-75
2023/01/28 11:31:50;;;;;;;15.87;13.63;;;;;;;;;;5071759;28;20903;-75
2023/01/28 11:34:18;;;;;;;17.93;14.13;;;;;;;;;;5071966;28;20452;-74
2023/01/28 11:36:51;;;;;;;19.03;13.37;;;;;;;;;;5071894;28;20892;-74
2023/01/28 11:39:21;;;;;;;19.50;15.37;;;;;;;;;;5071988;28;20964;-75
2023/01/28 11:41:48;;;;;;;18.37;14.13;;;;;;;;;;5071783;28;20442;-75
2023/01/28 11:44:16;;;;;;;18.87;14.67;;;;;;;;;;5071893;28;20452;-76
2023/01/28 11:46:57;;;;;;;16.77;14.33;;;;;;;;;;5071517;28;20438;-75
2023/01/28 11:49:29;;;;;;;17.07;13.77;;;;;;;;;;5071832;28;20471;-75
2023/01/28 11:52:00;;;;;;;17.37;13.87;;;;;;;;;;5071883;28;20439;-75
2023/01/28 11:54:35;;;;;;;18.97;14.70;;;;;;;;;;5071741;28;20466;-75
2023/01/28 11:57:08;;;;;;;21.07;14.87;;;;;;;;;;5071599;28;20460;-76
2023/01/28 11:59:49;;;;;;;18.90;14.07;;;;;;;;;;5071420;28;20464;-76
2023/01/28 12:02:24;;;;;;;18.13;13.80;;;;;;;;;;5071129;28;20907;-75
2023/01/28 12:04:57;;;;;;;21.07;14.73;;;;;;;;;;5071277;28;20434;-75
2023/01/28 12:07:31;;;;;;;16.40;14.10;;;;;;;;;;5071538;28;20431;-75
2023/01/28 12:10:01;;;;;;;17.43;12.63;;;;;;;;;;5071045;28;20479;-75
2023/01/28 12:12:39;;;;;;;18.20;15.20;;;;;;;;;;5071411;28;20442;-76
2023/01/28 12:15:22;;;;;;;17.13;13.77;;;;;;;;;;5071149;28;20808;-75
2023/01/28 12:17:56;;;;;;;17.73;13.80;;;;;;;;;;5071355;28;20475;-75
2023/01/28 12:20:30;;;;;;;19.87;15.17;;;;;;;;;;5070876;28;20459;-74
2023/01/28 12:23:06;;;;;;;19.07;15.20;;;;;;;;;;5071014;28;20927;-75
2023/01/28 12:25:40;;;;;;;18.07;13.20;;;;;;;;;;5070924;28;20447;-75
2023/01/28 12:28:09;;;;;;;20.80;14.10;;;;;;;;;;5070974;28;20933;-76
2023/01/28 12:30:41;;;;;;;19.17;14.87;;;;;;;;;;5070516;28;20493;-75
2023/01/28 12:33:19;;;;;;;17.40;14.23;;;;;;;;;;5070845;28;20450;-74
2023/01/28 12:35:55;;;;;;;17.60;13.97;;;;;;;;;;5072603;28;20442;-74
2023/01/28 12:38:28;;;;;;;19.60;13.90;;;;;;;;;;5075551;28;20449;-75
2023/01/28 12:41:01;;;;;;;17.27;14.50;;;;;;;;;;5070796;28;20458;-74
2023/01/28 12:43:39;;;;;;;20.63;14.00;;;;;;;;;;5070393;28;20423;-74
2023/01/28 12:46:10;;;;;;;18.10;14.20;;;;;;;;;;5071225;28;20474;-76
2023/01/28 12:48:38;;;;;;;22.70;14.73;;;;;;;;;;5073157;28;20438;-75
2023/01/28 12:51:08;;;;;;;18.47;14.37;;;;;;;;;;5073675;28;20466;-75
2023/01/28 12:53:38;;;;;;;19.60;14.57;;;;;;;;;;5071472;28;20448;-74
2023/01/28 12:56:10;;;;;;;15.00;12.63;;;;;;;;;;5073765;28;20486;-75
2023/01/28 12:58:40;;;;;;;19.37;13.30;;;;;;;;;;5078272;28;20978;-75
2023/01/28 13:01:09;;;;;;;15.90;12.60;;;;;;;;;;5072480;28;20479;-75
2023/01/28 13:03:39;;;;;;;17.70;13.13;;;;;;;;;;5070676;28;20854;-75
2023/01/28 13:06:09;;;;;;;17.33;12.63;;;;;;;;;;5071330;28;20440;-75
2023/01/28 13:08:36;;;;;;;14.60;11.57;;;;;;;;;;5071241;28;20435;-74
2023/01/28 13:11:04;;;;;;;15.47;10.90;;;;;;;;;;5070842;28;20474;-75
2023/01/28 13:13:34;;;;;;;13.30;10.43;;;;;;;;;;5071960;28;20958;-75
2023/01/28 13:16:02;;;;;;;12.83;9.30;;;;;;;;;;5081470;28;20431;-75
2023/01/28 13:18:33;;;;;;;12.40;9.23;;;;;;;;;;5070544;28;20429;-75
2023/01/28 13:21:01;;;;;;;10.30;8.37;;;;;;;;;;5052192;28;20460;-75
2023/01/28 13:23:37;;;;;;;12.90;9.50;;;;;;;;;;5052257;28;20545;-75
2023/01/28 13:26:10;;;;;;;10.57;8.80;;;;;;;;;;5051356;28;20964;-74
2023/01/28 13:28:38;;;;;;;11.57;9.20;;;;;;;;;;5050403;28;20528;-74
2023/01/28 13:31:07;;;;;;;14.27;10.60;;;;;;;;;;5050026;28;20466;-75
2023/01/28 13:33:35;;;;;;;10.83;9.30;;;;;;;;;;5049917;28;20455;-75
2023/01/28 13:36:03;;;;;;;12.20;9.23;;;;;;;;;;5050293;28;20444;-75
2023/01/28 13:38:32;;;;;;;12.47;9.90;;;;;;;;;;5050438;28;20581;-76
2023/01/28 13:41:05;;;;;;;14.83;10.67;;;;;;;;;;5050274;28;20507;-75
2023/01/28 13:43:37;;;;;;;11.87;9.90;;;;;;;;;;5050608;28;20777;-75
2023/01/28 13:46:07;;;;;;;11.77;10.47;;;;;;;;;;5050340;28;20713;-74
2023/01/28 13:48:40;;;;;;;14.97;10.70;;;;;;;;;;5049760;28;20502;-74
2023/01/28 13:51:16;;;;;;;11.30;10.10;;;;;;;;;;5050178;28;20971;-75
2023/01/28 13:53:46;;;;;;;13.17;11.13;;;;;;;;;;5049513;28;20894;-75
2023/01/28 13:56:20;;;;;;;15.80;11.63;;;;;;;;;;5049443;28;20451;-75
2023/01/28 13:59:14;;;;;;;13.97;10.83;;;;;;;;;;5049866;28;20503;-75
2023/01/28 14:01:56;;;;;;;13.33;10.50;;;;;;;;;;5013798;28;20460;-74
2023/01/28 14:04:47;;;;;;;12.60;10.83;;;;;;;;;;5049991;28;20434;-75
2023/01/28 14:07:21;;;;;;;16.53;12.53;;;;;;;;;;5049613;28;20424;-75
2023/01/28 14:10:03;;;;;;;16.70;11.17;;;;;;;;;;5049773;28;20508;-75
2023/01/28 14:12:44;;;;;;;12.37;10.73;;;;;;;;;;5049607;28;20439;-75
2023/01/28 14:15:20;;;;;;;14.70;11.83;;;;;;;;;;5049439;28;20485;-75
2023/01/28 14:17:49;;;;;;;14.17;11.67;;;;;;;;;;5053156;28;20471;-74
2023/01/28 14:20:19;;;;;;;12.90;10.93;;;;;;;;;;5053432;28;20468;-76
2023/01/28 14:22:46;;;;;;;14.13;12.17;;;;;;;;;;5053203;28;20514;-75
2023/01/28 14:25:15;;;;;;;11.93;10.73;;;;;;;;;;5053186;28;20809;-75
2023/01/28 14:27:44;;;;;;;13.80;10.90;;;;;;;;;;5053564;28;20448;-75
2023/01/28 14:30:17;;;;;;;11.30;10.13;;;;;;;;;;5053247;28;20517;-75
2023/01/28 14:32:46;;;;;;;15.73;10.83;;;;;;;;;;5052860;28;20427;-75
2023/01/28 14:35:18;;;;;;;14.03;10.93;;;;;;;;;;5052716;28;20456;-74
2023/01/28 14:37:45;;;;;;;13.63;10.60;;;;;;;;;;5053255;28;20472;-75
2023/01/28 14:40:13;;;;;;;13.40;10.77;;;;;;;;;;5052928;28;20974;-75
2023/01/28 14:42:41;;;;;;;11.17;9.33;;;;;;;;;;5053067;28;20443;-75
2023/01/28 14:45:14;;;;;;;12.63;10.20;;;;;;;;;;5052710;28;20791;-75
2023/01/28 14:47:53;;;;;;;11.63;10.43;;;;;;;;;;5053000;28;20869;-75
2023/01/28 14:50:28;;;;;;;10.97;9.87;;;;;;;;;;5052884;28;20496;-75
2023/01/28 14:53:11;;;;;;;11.03;9.23;;;;;;;;;;5052716;28;20446;-75
2023/01/28 14:55:43;;;;;;;10.07;8.90;;;;;;;;;;5044298;28;20900;-75
2023/01/28 14:58:15;;;;;;;11.60;10.40;;;;;;;;;;5052109;28;20470;-75
2023/01/28 15:00:42;;;;;;;11.17;9.80;;;;;;;;;;5052573;28;20474;-75
2023/01/28 15:03:09;;;;;;;10.00;9.00;;;;;;;;;;5054147;28;20474;-74
2023/01/28 15:05:38;;;;;;;10.27;9.10;;;;;;;;;;5053428;28;20954;-75
2023/01/28 15:08:05;;;;;;;10.10;9.20;;;;;;;;;;5053125;28;20448;-74